sensor_id;sensor_type;location;lat;lon;timestamp;pressure;altitude;pressure_sealevel;temperature;humidity
79309;BME280;68767;53.078;7.386;2024-02-23T00:02:15;98491.78;;;4.36;100.00
79309;BME280;68767;53.078;7.386;2024-02-23T00:04:42;98500.31;;;4.30;100.00
79309;BME280;68767;53.078;7.386;2024-02-23T00:07:09;98497.00;;;4.20;100.00
79309;BME280;68767;53.078;7.386;2024-02-23T00:09:37;98513.28;;;4.19;100.00
79309;BME280;68767;53.078;7.386;2024-02-23T00:12:04;98526.91;;;4.17;100.00
79309;BME280;68767;53.078;7.386;2024-02-23T00:14:31;98541.41;;;4.20;100.00
79309;BME280;68767;53.078;7.386;2024-02-23T00:16:59;98540.09;;;4.14;100.00
79309;BME280;68767;53.078;7.386;2024-02-23T00:19:30;98555.22;;;4.13;100.00
79309;BME280;68767;53.078;7.386;2024-02-23T00:21:57;98553.38;;;4.14;100.00
79309;BME280;68767;53.078;7.386;2024-02-23T00:24:26;98562.13;;;4.14;100.00
79309;BME280;68767;53.078;7.386;2024-02-23T00:26:54;98585.69;;;4.16;100.00
79309;BME280;68767;53.078;7.386;2024-02-23T00:29:21;98594.88;;;4.18;100.00
79309;BME280;68767;53.078;7.386;2024-02-23T00:31:49;98592.31;;;4.10;100.00
79309;BME280;68767;53.078;7.386;2024-02-23T00:34:16;98606.72;;;4.09;100.00
79309;BME280;68767;53.078;7.386;2024-02-23T00:36:43;98615.44;;;4.09;100.00
79309;BME280;68767;53.078;7.386;2024-02-23T00:39:11;98623.09;;;4.11;100.00
79309;BME280;68767;53.078;7.386;2024-02-23T00:41:38;98626.19;;;4.13;100.00
79309;BME280;68767;53.078;7.386;2024-02-23T00:44:06;98626.41;;;4.08;100.00
79309;BME280;68767;53.078;7.386;2024-02-23T00:46:33;98629.69;;;4.05;100.00
79309;BME280;68767;53.078;7.386;2024-02-23T00:49:00;98639.25;;;4.06;100.00
79309;BME280;68767;53.078;7.386;2024-02-23T00:51:28;98640.81;;;4.07;100.00
79309;BME280;68767;53.078;7.386;2024-02-23T00:53:55;98659.94;;;4.12;100.00
79309;BME280;68767;53.078;7.386;2024-02-23T00:56:22;98654.78;;;4.16;100.00
79309;BME280;68767;53.078;7.386;2024-02-23T00:58:58;98663.19;;;4.18;100.00
79309;BME280;68767;53.078;7.386;2024-02-23T01:01:25;98675.38;;;4.19;100.00
79309;BME280;68767;53.078;7.386;2024-02-23T01:03:53;98682.22;;;4.20;100.00
79309;BME280;68767;53.078;7.386;2024-02-23T01:06:20;98682.72;;;4.22;100.00
79309;BME280;68767;53.078;7.386;2024-02-23T01:08:48;98699.28;;;4.19;100.00
79309;BME280;68767;53.078;7.386;2024-02-23T01:11:15;98714.00;;;4.16;100.00
79309;BME280;68767;53.078;7.386;2024-02-23T01:13:42;98711.88;;;4.10;100.00
79309;BME280;68767;53.078;7.386;2024-02-23T01:16:09;98713.84;;;4.01;100.00
79309;BME280;68767;53.078;7.386;2024-02-23T01:18:36;98719.66;;;3.94;100.00
79309;BME280;68767;53.078;7.386;2024-02-23T01:21:03;98742.09;;;3.84;100.00
79309;BME280;68767;53.078;7.386;2024-02-23T01:23:30;98745.91;;;3.75;100.00
79309;BME280;68767;53.078;7.386;2024-02-23T01:25:57;98746.41;;;3.68;100.00
79309;BME280;68767;53.078;7.386;2024-02-23T01:28:26;98755.66;;;3.62;100.00
79309;BME280;68767;53.078;7.386;2024-02-23T01:30:53;98764.31;;;3.50;100.00
79309;BME280;68767;53.078;7.386;2024-02-23T01:33:20;98792.63;;;3.37;100.00
79309;BME280;68767;53.078;7.386;2024-02-23T01:35:47;98787.88;;;3.14;100.00
79309;BME280;68767;53.078;7.386;2024-02-23T01:38:14;98782.34;;;2.89;100.00
79309;BME280;68767;53.078;7.386;2024-02-23T01:40:47;98776.28;;;2.80;100.00
79309;BME280;68767;53.078;7.386;2024-02-23T01:43:14;98784.88;;;2.68;100.00
79309;BME280;68767;53.078;7.386;2024-02-23T01:45:41;98773.19;;;2.61;100.00
79309;BME280;68767;53.078;7.386;2024-02-23T01:48:08;98788.78;;;2.62;100.00
79309;BME280;68767;53.078;7.386;2024-02-23T01:50:36;98803.59;;;2.63;100.00
79309;BME280;68767;53.078;7.386;2024-02-23T01:53:04;98790.34;;;2.63;100.00
79309;BME280;68767;53.078;7.386;2024-02-23T01:55:32;98790.34;;;2.63;100.00
79309;BME280;68767;53.078;7.386;2024-02-23T01:58:04;98791.75;;;2.69;100.00
79309;BME280;68767;53.078;7.386;2024-02-23T02:00:35;98798.59;;;2.79;100.00
79309;BME280;68767;53.078;7.386;2024-02-23T02:03:02;98795.59;;;2.89;100.00
79309;BME280;68767;53.078;7.386;2024-02-23T02:05:30;98801.69;;;2.90;100.00
79309;BME280;68767;53.078;7.386;2024-02-23T02:07:57;98808.06;;;2.97;100.00
79309;BME280;68767;53.078;7.386;2024-02-23T02:10:27;98808.34;;;3.04;100.00
79309;BME280;68767;53.078;7.386;2024-02-23T02:12:54;98817.41;;;3.03;100.00
79309;BME280;68767;53.078;7.386;2024-02-23T02:15:21;98811.78;;;3.05;100.00
79309;BME280;68767;53.078;7.386;2024-02-23T02:17:49;98813.34;;;3.06;100.00
79309;BME280;68767;53.078;7.386;2024-02-23T02:20:18;98823.13;;;3.14;100.00
79309;BME280;68767;53.078;7.386;2024-02-23T02:22:50;98824.25;;;3.13;100.00
79309;BME280;68767;53.078;7.386;2024-02-23T02:25:17;98830.28;;;3.22;100.00
79309;BME280;68767;53.078;7.386;2024-02-23T02:27:44;98829.84;;;3.20;100.00
79309;BME280;68767;53.078;7.386;2024-02-23T02:30:12;98836.41;;;3.23;100.00
79309;BME280;68767;53.078;7.386;2024-02-23T02:32:40;98847.13;;;3.35;100.00
79309;BME280;68767;53.078;7.386;2024-02-23T02:35:09;98849.88;;;3.47;100.00
79309;BME280;68767;53.078;7.386;2024-02-23T02:37:37;98867.66;;;3.55;100.00
79309;BME280;68767;53.078;7.386;2024-02-23T02:40:04;98862.00;;;3.65;100.00
79309;BME280;68767;53.078;7.386;2024-02-23T02:42:33;98863.06;;;3.73;100.00
79309;BME280;68767;53.078;7.386;2024-02-23T02:45:00;98868.34;;;3.82;100.00
79309;BME280;68767;53.078;7.386;2024-02-23T02:47:27;98865.81;;;3.85;100.00
79309;BME280;68767;53.078;7.386;2024-02-23T02:49:54;98865.34;;;3.83;100.00
79309;BME280;68767;53.078;7.386;2024-02-23T02:52:21;98859.25;;;3.83;100.00
79309;BME280;68767;53.078;7.386;2024-02-23T02:54:50;98853.97;;;3.83;100.00
79309;BME280;68767;53.078;7.386;2024-02-23T02:57:17;98869.25;;;3.86;100.00
79309;BME280;68767;53.078;7.386;2024-02-23T02:59:44;98868.63;;;3.89;100.00
79309;BME280;68767;53.078;7.386;2024-02-23T03:02:12;98874.66;;;3.98;100.00
79309;BME280;68767;53.078;7.386;2024-02-23T03:04:47;98871.34;;;4.01;100.00
79309;BME280;68767;53.078;7.386;2024-02-23T03:07:15;98872.25;;;4.05;100.00
79309;BME280;68767;53.078;7.386;2024-02-23T03:09:42;98865.66;;;4.11;100.00
79309;BME280;68767;53.078;7.386;2024-02-23T03:12:10;98880.38;;;4.09;100.00
79309;BME280;68767;53.078;7.386;2024-02-23T03:14:37;98880.06;;;4.10;100.00
79309;BME280;68767;53.078;7.386;2024-02-23T03:17:08;98898.16;;;4.17;100.00
79309;BME280;68767;53.078;7.386;2024-02-23T03:19:37;98890.44;;;4.24;100.00
79309;BME280;68767;53.078;7.386;2024-02-23T03:22:04;98896.66;;;4.28;100.00
79309;BME280;68767;53.078;7.386;2024-02-23T03:24:31;98909.63;;;4.30;100.00
79309;BME280;68767;53.078;7.386;2024-02-23T03:26:58;98899.78;;;4.30;100.00
79309;BME280;68767;53.078;7.386;2024-02-23T03:29:26;98892.59;;;4.31;100.00
79309;BME280;68767;53.078;7.386;2024-02-23T03:31:56;98896.16;;;4.35;100.00
79309;BME280;68767;53.078;7.386;2024-02-23T03:34:24;98905.34;;;4.37;100.00
79309;BME280;68767;53.078;7.386;2024-02-23T03:36:52;98899.25;;;4.37;100.00
79309;BME280;68767;53.078;7.386;2024-02-23T03:39:19;98912.09;;;4.35;100.00
79309;BME280;68767;53.078;7.386;2024-02-23T03:41:46;98900.31;;;4.23;100.00
79309;BME280;68767;53.078;7.386;2024-02-23T03:44:13;98910.34;;;4.18;100.00
79309;BME280;68767;53.078;7.386;2024-02-23T03:46:40;98915.81;;;4.13;100.00
79309;BME280;68767;53.078;7.386;2024-02-23T03:49:07;98922.09;;;4.08;100.00
79309;BME280;68767;53.078;7.386;2024-02-23T03:51:34;98921.13;;;4.13;100.00
79309;BME280;68767;53.078;7.386;2024-02-23T03:54:03;98936.47;;;4.16;100.00
79309;BME280;68767;53.078;7.386;2024-02-23T03:56:37;98930.03;;;4.17;100.00
79309;BME280;68767;53.078;7.386;2024-02-23T03:59:04;98921.66;;;4.06;100.00
79309;BME280;68767;53.078;7.386;2024-02-23T04:01:32;98941.06;;;3.98;100.00
79309;BME280;68767;53.078;7.386;2024-02-23T04:03:59;98947.78;;;3.95;100.00
79309;BME280;68767;53.078;7.386;2024-02-23T04:06:26;98937.97;;;3.87;100.00
79309;BME280;68767;53.078;7.386;2024-02-23T04:08:53;98945.50;;;3.85;100.00
79309;BME280;68767;53.078;7.386;2024-02-23T04:11:20;98942.19;;;3.88;100.00
79309;BME280;68767;53.078;7.386;2024-02-23T04:13:47;98953.78;;;3.84;100.00
79309;BME280;68767;53.078;7.386;2024-02-23T04:16:18;98959.09;;;3.84;100.00
79309;BME280;68767;53.078;7.386;2024-02-23T04:18:45;98955.50;;;3.80;100.00
79309;BME280;68767;53.078;7.386;2024-02-23T04:21:12;98966.44;;;3.78;100.00
79309;BME280;68767;53.078;7.386;2024-02-23T04:23:39;98972.09;;;3.77;100.00
79309;BME280;68767;53.078;7.386;2024-02-23T04:26:06;98963.00;;;3.78;100.00
79309;BME280;68767;53.078;7.386;2024-02-23T04:28:33;98972.41;;;3.75;100.00
79309;BME280;68767;53.078;7.386;2024-02-23T04:31:00;98973.31;;;3.79;100.00
79309;BME280;68767;53.078;7.386;2024-02-23T04:33:27;98982.84;;;3.80;100.00
79309;BME280;68767;53.078;7.386;2024-02-23T04:35:54;98985.66;;;3.84;100.00
79309;BME280;68767;53.078;7.386;2024-02-23T04:38:21;98979.09;;;3.81;100.00
79309;BME280;68767;53.078;7.386;2024-02-23T04:40:48;98998.16;;;3.83;100.00
79309;BME280;68767;53.078;7.386;2024-02-23T04:43:16;98996.28;;;3.84;100.00
79309;BME280;68767;53.078;7.386;2024-02-23T04:45:42;99012.53;;;3.82;100.00
79309;BME280;68767;53.078;7.386;2024-02-23T04:48:10;98999.09;;;3.79;100.00
79309;BME280;68767;53.078;7.386;2024-02-23T04:50:37;99013.00;;;3.84;100.00
79309;BME280;68767;53.078;7.386;2024-02-23T04:53:04;99014.09;;;3.83;100.00
79309;BME280;68767;53.078;7.386;2024-02-23T04:55:31;99016.91;;;3.78;100.00
79309;BME280;68767;53.078;7.386;2024-02-23T04:57:58;99007.84;;;3.79;100.00
79309;BME280;68767;53.078;7.386;2024-02-23T05:00:25;99012.69;;;3.77;100.00
79309;BME280;68767;53.078;7.386;2024-02-23T05:03:00;99018.66;;;3.74;100.00
79309;BME280;68767;53.078;7.386;2024-02-23T05:05:30;99022.22;;;3.78;100.00
79309;BME280;68767;53.078;7.386;2024-02-23T05:07:58;99023.16;;;3.82;100.00
79309;BME280;68767;53.078;7.386;2024-02-23T05:10:26;99027.38;;;3.83;100.00
79309;BME280;68767;53.078;7.386;2024-02-23T05:12:53;99025.50;;;3.84;100.00
79309;BME280;68767;53.078;7.386;2024-02-23T05:15:20;99037.81;;;3.88;100.00
79309;BME280;68767;53.078;7.386;2024-02-23T05:17:48;99031.59;;;3.84;100.00
79309;BME280;68767;53.078;7.386;2024-02-23T05:20:15;99040.19;;;3.90;100.00
79309;BME280;68767;53.078;7.386;2024-02-23T05:22:42;99042.06;;;3.89;100.00
79309;BME280;68767;53.078;7.386;2024-02-23T05:25:09;99049.53;;;3.87;100.00
79309;BME280;68767;53.078;7.386;2024-02-23T05:27:36;99047.38;;;3.89;100.00
79309;BME280;68767;53.078;7.386;2024-02-23T05:30:03;99043.59;;;3.90;100.00
79309;BME280;68767;53.078;7.386;2024-02-23T05:32:31;99050.47;;;3.91;100.00
79309;BME280;68767;53.078;7.386;2024-02-23T05:34:58;99054.22;;;3.99;100.00
79309;BME280;68767;53.078;7.386;2024-02-23T05:37:25;99051.06;;;4.06;100.00
79309;BME280;68767;53.078;7.386;2024-02-23T05:39:53;99066.69;;;4.07;100.00
79309;BME280;68767;53.078;7.386;2024-02-23T05:42:21;99066.22;;;4.05;100.00
79309;BME280;68767;53.078;7.386;2024-02-23T05:44:47;99062.16;;;4.08;100.00
79309;BME280;68767;53.078;7.386;2024-02-23T05:47:17;99069.81;;;4.09;100.00
79309;BME280;68767;53.078;7.386;2024-02-23T05:49:44;99068.72;;;4.10;100.00
79309;BME280;68767;53.078;7.386;2024-02-23T05:52:11;99077.63;;;4.14;100.00
79309;BME280;68767;53.078;7.386;2024-02-23T05:54:38;99079.34;;;4.10;100.00
79309;BME280;68767;53.078;7.386;2024-02-23T05:57:05;99084.94;;;4.17;100.00
79309;BME280;68767;53.078;7.386;2024-02-23T05:59:32;99084.00;;;4.22;100.00
79309;BME280;68767;53.078;7.386;2024-02-23T06:01:59;99082.91;;;4.23;100.00
79309;BME280;68767;53.078;7.386;2024-02-23T06:04:27;99099.44;;;4.29;100.00
79309;BME280;68767;53.078;7.386;2024-02-23T06:06:54;99103.03;;;4.33;100.00
79309;BME280;68767;53.078;7.386;2024-02-23T06:09:21;99103.50;;;4.35;100.00
79309;BME280;68767;53.078;7.386;2024-02-23T06:11:48;99103.63;;;4.38;100.00
79309;BME280;68767;53.078;7.386;2024-02-23T06:14:16;99105.22;;;4.39;100.00
79309;BME280;68767;53.078;7.386;2024-02-23T06:16:43;99108.66;;;4.40;100.00
79309;BME280;68767;53.078;7.386;2024-02-23T06:19:11;99105.22;;;4.39;100.00
79309;BME280;68767;53.078;7.386;2024-02-23T06:21:38;99108.66;;;4.40;100.00
79309;BME280;68767;53.078;7.386;2024-02-23T06:24:05;99102.06;;;4.37;100.00
79309;BME280;68767;53.078;7.386;2024-02-23T06:26:34;99108.03;;;4.34;100.00
79309;BME280;68767;53.078;7.386;2024-02-23T06:29:02;99114.78;;;4.32;100.00
79309;BME280;68767;53.078;7.386;2024-02-23T06:31:30;99106.66;;;4.28;100.00
79309;BME280;68767;53.078;7.386;2024-02-23T06:33:57;99111.19;;;4.28;100.00
79309;BME280;68767;53.078;7.386;2024-02-23T06:36:24;99110.72;;;4.26;100.00
79309;BME280;68767;53.078;7.386;2024-02-23T06:38:51;99121.22;;;4.22;100.00
79309;BME280;68767;53.078;7.386;2024-02-23T06:41:18;99119.97;;;4.19;100.00
79309;BME280;68767;53.078;7.386;2024-02-23T06:43:45;99116.06;;;4.17;100.00
79309;BME280;68767;53.078;7.386;2024-02-23T06:46:12;99131.56;;;4.15;100.00
79309;BME280;68767;53.078;7.386;2024-02-23T06:48:39;99123.09;;;4.13;100.00
79309;BME280;68767;53.078;7.386;2024-02-23T06:51:07;99130.00;;;4.14;100.00
79309;BME280;68767;53.078;7.386;2024-02-23T06:53:36;99136.09;;;4.14;100.00
79309;BME280;68767;53.078;7.386;2024-02-23T06:56:05;99143.75;;;4.16;100.00
79309;BME280;68767;53.078;7.386;2024-02-23T06:58:32;99156.06;;;4.20;100.00
79309;BME280;68767;53.078;7.386;2024-02-23T07:00:59;99154.19;;;4.21;100.00
79309;BME280;68767;53.078;7.386;2024-02-23T07:03:27;99159.34;;;4.26;100.00
79309;BME280;68767;53.078;7.386;2024-02-23T07:05:55;99160.25;;;4.30;100.00
79309;BME280;68767;53.078;7.386;2024-02-23T07:08:22;99167.75;;;4.37;100.00
79309;BME280;68767;53.078;7.386;2024-02-23T07:10:49;99163.84;;;4.43;100.00
79309;BME280;68767;53.078;7.386;2024-02-23T07:13:16;99175.09;;;4.48;100.00
79309;BME280;68767;53.078;7.386;2024-02-23T07:15:44;99188.22;;;4.54;100.00
79309;BME280;68767;53.078;7.386;2024-02-23T07:18:11;99182.28;;;4.57;100.00
79309;BME280;68767;53.078;7.386;2024-02-23T07:20:38;99180.84;;;4.59;100.00
79309;BME280;68767;53.078;7.386;2024-02-23T07:23:05;99184.91;;;4.65;100.00
79309;BME280;68767;53.078;7.386;2024-02-23T07:25:33;99193.03;;;4.60;100.00
79309;BME280;68767;53.078;7.386;2024-02-23T07:28:00;99177.56;;;4.54;100.00
79309;BME280;68767;53.078;7.386;2024-02-23T07:30:27;99184.16;;;4.56;100.00
79309;BME280;68767;53.078;7.386;2024-02-23T07:32:54;99187.59;;;4.57;100.00
79309;BME280;68767;53.078;7.386;2024-02-23T07:35:21;99186.47;;;4.66;100.00
79309;BME280;68767;53.078;7.386;2024-02-23T07:37:48;99179.88;;;4.72;100.00
79309;BME280;68767;53.078;7.386;2024-02-23T07:40:15;99188.00;;;4.76;100.00
79309;BME280;68767;53.078;7.386;2024-02-23T07:42:47;99199.72;;;4.84;100.00
79309;BME280;68767;53.078;7.386;2024-02-23T07:45:14;99199.72;;;4.84;100.00
79309;BME280;68767;53.078;7.386;2024-02-23T07:47:41;99192.19;;;4.86;100.00
79309;BME280;68767;53.078;7.386;2024-02-23T07:50:09;99199.53;;;4.89;100.00
79309;BME280;68767;53.078;7.386;2024-02-23T07:52:36;99200.16;;;4.86;100.00
79309;BME280;68767;53.078;7.386;2024-02-23T07:55:04;99189.69;;;4.89;100.00
79309;BME280;68767;53.078;7.386;2024-02-23T07:57:32;99192.31;;;4.98;100.00
79309;BME280;68767;53.078;7.386;2024-02-23T08:00:00;99200.88;;;5.03;100.00
79309;BME280;68767;53.078;7.386;2024-02-23T08:02:37;99201.94;;;5.11;100.00
79309;BME280;68767;53.078;7.386;2024-02-23T08:05:06;99193.63;;;5.13;100.00
79309;BME280;68767;53.078;7.386;2024-02-23T08:07:33;99196.16;;;5.09;100.00
79309;BME280;68767;53.078;7.386;2024-02-23T08:10:01;99197.38;;;5.12;100.00
79309;BME280;68767;53.078;7.386;2024-02-23T08:12:29;99188.78;;;5.15;100.00
79309;BME280;68767;53.078;7.386;2024-02-23T08:14:56;99195.00;;;5.19;100.00
79309;BME280;68767;53.078;7.386;2024-02-23T08:17:23;99188.47;;;5.16;100.00
79309;BME280;68767;53.078;7.386;2024-02-23T08:19:52;99202.03;;;5.23;100.00
79309;BME280;68767;53.078;7.386;2024-02-23T08:22:20;99207.94;;;5.29;100.00
79309;BME280;68767;53.078;7.386;2024-02-23T08:24:46;99199.34;;;5.32;100.00
79309;BME280;68767;53.078;7.386;2024-02-23T08:27:13;99205.44;;;5.32;100.00
79309;BME280;68767;53.078;7.386;2024-02-23T08:29:40;99208.22;;;5.36;100.00
79309;BME280;68767;53.078;7.386;2024-02-23T08:32:08;99208.72;;;5.38;100.00
79309;BME280;68767;53.078;7.386;2024-02-23T08:34:35;99209.72;;;5.46;100.00
79309;BME280;68767;53.078;7.386;2024-02-23T08:37:03;99197.34;;;5.50;100.00
79309;BME280;68767;53.078;7.386;2024-02-23T08:39:30;99195.84;;;5.61;100.00
79309;BME280;68767;53.078;7.386;2024-02-23T08:41:57;99189.91;;;5.64;100.00
79309;BME280;68767;53.078;7.386;2024-02-23T08:44:24;99197.88;;;5.64;100.00
79309;BME280;68767;53.078;7.386;2024-02-23T08:46:51;99199.25;;;5.70;100.00
79309;BME280;68767;53.078;7.386;2024-02-23T08:49:18;99189.84;;;5.73;100.00
79309;BME280;68767;53.078;7.386;2024-02-23T08:51:45;99190.63;;;5.73;100.00
79309;BME280;68767;53.078;7.386;2024-02-23T08:54:12;99196.38;;;5.75;100.00
79309;BME280;68767;53.078;7.386;2024-02-23T08:56:39;99187.03;;;5.69;100.00
79309;BME280;68767;53.078;7.386;2024-02-23T08:59:09;99184.50;;;5.73;100.00
79309;BME280;68767;53.078;7.386;2024-02-23T09:01:36;99186.66;;;5.79;100.00
79309;BME280;68767;53.078;7.386;2024-02-23T09:04:03;99188.94;;;5.89;100.00
79309;BME280;68767;53.078;7.386;2024-02-23T09:06:30;99183.28;;;5.91;100.00
79309;BME280;68767;53.078;7.386;2024-02-23T09:09:05;99181.56;;;5.86;100.00
79309;BME280;68767;53.078;7.386;2024-02-23T09:11:32;99175.00;;;5.84;100.00
79309;BME280;68767;53.078;7.386;2024-02-23T09:14:00;99181.06;;;5.93;100.00
79309;BME280;68767;53.078;7.386;2024-02-23T09:16:27;99167.03;;;6.05;100.00
79309;BME280;68767;53.078;7.386;2024-02-23T09:18:54;99164.59;;;6.12;100.00
79309;BME280;68767;53.078;7.386;2024-02-23T09:21:21;99161.28;;;6.15;100.00
79309;BME280;68767;53.078;7.386;2024-02-23T09:23:48;99155.97;;;6.15;100.00
79309;BME280;68767;53.078;7.386;2024-02-23T09:26:15;99158.28;;;6.16;100.00
79309;BME280;68767;53.078;7.386;2024-02-23T09:28:42;99154.41;;;6.14;100.00
79309;BME280;68767;53.078;7.386;2024-02-23T09:31:11;99158.63;;;6.15;100.00
79309;BME280;68767;53.078;7.386;2024-02-23T09:33:38;99157.69;;;6.32;100.00
79309;BME280;68767;53.078;7.386;2024-02-23T09:36:06;99157.34;;;6.33;100.00
79309;BME280;68767;53.078;7.386;2024-02-23T09:38:33;99160.94;;;6.50;100.00
79309;BME280;68767;53.078;7.386;2024-02-23T09:41:01;99157.19;;;6.63;100.00
79309;BME280;68767;53.078;7.386;2024-02-23T09:43:31;99166.63;;;6.60;100.00
79309;BME280;68767;53.078;7.386;2024-02-23T09:45:59;99167.88;;;6.63;100.00
79309;BME280;68767;53.078;7.386;2024-02-23T09:48:27;99167.97;;;6.54;100.00
79309;BME280;68767;53.078;7.386;2024-02-23T09:50:56;99174.75;;;6.64;100.00
79309;BME280;68767;53.078;7.386;2024-02-23T09:53:24;99189.59;;;6.53;100.00
79309;BME280;68767;53.078;7.386;2024-02-23T09:55:53;99174.16;;;6.46;100.00
79309;BME280;68767;53.078;7.386;2024-02-23T09:58:20;99173.69;;;6.44;100.00
79309;BME280;68767;53.078;7.386;2024-02-23T10:00:48;99191.25;;;6.45;100.00
79309;BME280;68767;53.078;7.386;2024-02-23T10:03:15;99180.59;;;6.45;100.00
79309;BME280;68767;53.078;7.386;2024-02-23T10:05:43;99171.41;;;6.55;100.00
79309;BME280;68767;53.078;7.386;2024-02-23T10:08:11;99171.09;;;6.81;100.00
79309;BME280;68767;53.078;7.386;2024-02-23T10:10:40;99168.41;;;6.68;100.00
79309;BME280;68767;53.078;7.386;2024-02-23T10:13:08;99169.09;;;6.65;100.00
79309;BME280;68767;53.078;7.386;2024-02-23T10:15:35;99185.97;;;6.69;100.00
79309;BME280;68767;53.078;7.386;2024-02-23T10:18:03;99186.22;;;6.76;100.00
79309;BME280;68767;53.078;7.386;2024-02-23T10:20:30;99191.34;;;6.82;100.00
79309;BME280;68767;53.078;7.386;2024-02-23T10:22:58;99184.56;;;6.84;100.00
79309;BME280;68767;53.078;7.386;2024-02-23T10:25:25;99195.78;;;6.78;100.00
79309;BME280;68767;53.078;7.386;2024-02-23T10:27:53;99192.34;;;6.89;100.00
79309;BME280;68767;53.078;7.386;2024-02-23T10:30:21;99194.25;;;6.89;100.00
79309;BME280;68767;53.078;7.386;2024-02-23T10:32:49;99203.28;;;6.96;100.00
79309;BME280;68767;53.078;7.386;2024-02-23T10:35:19;99200.03;;;7.03;100.00
79309;BME280;68767;53.078;7.386;2024-02-23T10:37:49;99198.91;;;6.92;100.00
79309;BME280;68767;53.078;7.386;2024-02-23T10:40:19;99214.69;;;6.85;100.00
79309;BME280;68767;53.078;7.386;2024-02-23T10:42:47;99206.91;;;6.80;100.00
79309;BME280;68767;53.078;7.386;2024-02-23T10:45:26;99211.91;;;6.81;100.00
79309;BME280;68767;53.078;7.386;2024-02-23T10:47:57;99209.78;;;6.87;100.00
79309;BME280;68767;53.078;7.386;2024-02-23T10:50:25;99215.72;;;6.92;100.00
79309;BME280;68767;53.078;7.386;2024-02-23T10:52:54;99218.91;;;6.86;100.00
79309;BME280;68767;53.078;7.386;2024-02-23T10:55:25;99218.25;;;6.76;100.00
79309;BME280;68767;53.078;7.386;2024-02-23T10:57:55;99219.00;;;6.77;100.00
79309;BME280;68767;53.078;7.386;2024-02-23T11:00:26;99228.56;;;6.78;100.00
79309;BME280;68767;53.078;7.386;2024-02-23T11:02:56;99212.22;;;6.67;100.00
79309;BME280;68767;53.078;7.386;2024-02-23T11:05:28;99227.34;;;6.63;100.00
79309;BME280;68767;53.078;7.386;2024-02-23T11:07:58;99237.47;;;6.70;100.00
79309;BME280;68767;53.078;7.386;2024-02-23T11:10:25;99235.25;;;6.72;100.00
79309;BME280;68767;53.078;7.386;2024-02-23T11:12:59;99223.03;;;6.71;100.00
79309;BME280;68767;53.078;7.386;2024-02-23T11:15:30;99213.56;;;6.73;100.00
79309;BME280;68767;53.078;7.386;2024-02-23T11:18:00;99229.91;;;6.72;100.00
79309;BME280;68767;53.078;7.386;2024-02-23T11:20:36;99212.25;;;6.80;100.00
79309;BME280;68767;53.078;7.386;2024-02-23T11:23:13;99220.56;;;6.78;100.00
79309;BME280;68767;53.078;7.386;2024-02-23T11:25:41;99217.25;;;6.81;100.00
79309;BME280;68767;53.078;7.386;2024-02-23T11:28:08;99225.72;;;6.83;100.00
79309;BME280;68767;53.078;7.386;2024-02-23T11:30:35;99223.81;;;6.84;100.00
79309;BME280;68767;53.078;7.386;2024-02-23T11:33:07;99221.81;;;6.93;100.00
79309;BME280;68767;53.078;7.386;2024-02-23T11:35:34;99211.50;;;7.03;100.00
79309;BME280;68767;53.078;7.386;2024-02-23T11:38:03;99220.84;;;6.97;100.00
79309;BME280;68767;53.078;7.386;2024-02-23T11:40:32;99207.97;;;7.12;100.00
79309;BME280;68767;53.078;7.386;2024-02-23T11:43:00;99205.94;;;7.09;100.00
79309;BME280;68767;53.078;7.386;2024-02-23T11:45:28;99214.72;;;6.97;100.00
79309;BME280;68767;53.078;7.386;2024-02-23T11:47:55;99213.94;;;6.96;100.00
79309;BME280;68767;53.078;7.386;2024-02-23T11:50:23;99217.72;;;6.95;100.00
79309;BME280;68767;53.078;7.386;2024-02-23T11:52:50;99216.47;;;6.93;100.00
79309;BME280;68767;53.078;7.386;2024-02-23T11:55:19;99217.50;;;6.88;100.00
79309;BME280;68767;53.078;7.386;2024-02-23T11:57:50;99220.81;;;6.85;100.00
79309;BME280;68767;53.078;7.386;2024-02-23T12:00:31;99221.03;;;6.80;100.00
79309;BME280;68767;53.078;7.386;2024-02-23T12:02:58;99219.94;;;6.81;100.00
79309;BME280;68767;53.078;7.386;2024-02-23T12:05:25;99222.47;;;6.78;100.00
79309;BME280;68767;53.078;7.386;2024-02-23T12:07:52;99219.59;;;6.83;100.00
79309;BME280;68767;53.078;7.386;2024-02-23T12:10:20;99225.28;;;6.93;100.00
79309;BME280;68767;53.078;7.386;2024-02-23T12:12:47;99225.84;;;7.11;100.00
79309;BME280;68767;53.078;7.386;2024-02-23T12:15:14;99223.97;;;7.36;100.00
79309;BME280;68767;53.078;7.386;2024-02-23T12:17:48;99223.16;;;7.60;100.00
79309;BME280;68767;53.078;7.386;2024-02-23T12:20:16;99217.34;;;7.82;100.00
79309;BME280;68767;53.078;7.386;2024-02-23T12:22:43;99234.19;;;7.58;100.00
79309;BME280;68767;53.078;7.386;2024-02-23T12:25:12;99238.09;;;7.24;100.00
79309;BME280;68767;53.078;7.386;2024-02-23T12:27:40;99227.31;;;7.33;100.00
79309;BME280;68767;53.078;7.386;2024-02-23T12:30:15;99237.66;;;7.22;100.00
79309;BME280;68767;53.078;7.386;2024-02-23T12:32:44;99251.47;;;7.12;100.00
79309;BME280;68767;53.078;7.386;2024-02-23T12:35:12;99249.19;;;7.02;100.00
79309;BME280;68767;53.078;7.386;2024-02-23T12:37:39;99261.53;;;6.82;100.00
79309;BME280;68767;53.078;7.386;2024-02-23T12:40:11;99285.88;;;6.27;100.00
79309;BME280;68767;53.078;7.386;2024-02-23T12:42:39;99318.13;;;5.92;100.00
79309;BME280;68767;53.078;7.386;2024-02-23T12:45:07;99324.50;;;5.61;100.00
79309;BME280;68767;53.078;7.386;2024-02-23T12:47:34;99343.72;;;5.46;100.00
79309;BME280;68767;53.078;7.386;2024-02-23T12:50:01;99347.97;;;5.39;100.00
79309;BME280;68767;53.078;7.386;2024-02-23T12:52:28;99357.97;;;5.42;100.00
79309;BME280;68767;53.078;7.386;2024-02-23T12:54:55;99355.16;;;5.38;100.00
79309;BME280;68767;53.078;7.386;2024-02-23T12:57:22;99358.31;;;5.31;100.00
79309;BME280;68767;53.078;7.386;2024-02-23T12:59:49;99369.88;;;5.35;100.00
79309;BME280;68767;53.078;7.386;2024-02-23T13:02:16;99368.75;;;5.45;100.00
79309;BME280;68767;53.078;7.386;2024-02-23T13:04:44;99375.34;;;5.48;100.00